LSMEETSN

Guest
Details From LSME - Emmen
To ETSN - NEUBURG
Flight Number -
Tags generated
Created
Modified
Stats Distance 152 nm / 282 km
Max Altitude 19,900 ft / 6,066 m
Waypoints 3
Social Downloads 0
Likes 0
Share VATSIM

Download

Looking for another format? Having issues loading an existing format? Contact us
Advertisement - Login to hide

Notes

Basic altitude profile: - Ascent Rate: 2500ft/min - Ascent Speed: 250kts - Cruise Altitude: 35000ft - Cruise Speed: 420kts - Descent Rate: 1500ft/min - Descent Speed: 250kts Options: - Use NATs: yes - Use PACOTS: yes - Use low airways: yes - Use high airways: yes

Route

LSME NEGRA ETSN

ID Type Via Altitude Latitude Longitude Leg Dist Tot Dist Heading (true) Name
O LSME APT - 0 ft / 0 m 47.09237˚ 8.30512˚ - 0 nm - Emmen
NEGRA FIX - 19,900 ft / 6,066 m 47.72222˚ 9.42722˚ 59 nm 59 nm 50° / 51° -
O ETSN APT - 0 ft / 0 m 48.71100˚ 11.21158˚ 92 nm 152 nm 50° / 51° NEUBURG

Altitude Profile

Advertisement - Login to hide

LSME

Details ICAO LSME
Name Emmen
Region Switzerland
Timezone Europe/Zurich (UTC+1.0)
Stats Elevation 1,400 ft / 427 m (AMSL)
Location 47.092369° 8.305118°
Runways 1
Magnetic Variation 2.283° E

METAR

LSME 111850Z AUTO 05004KT 360V090 9000NDV -RA BKN026 OVC037 03/03 Q0990 RERA RMK

Decode

TAF

Not found

Departure Runways

ID Width Length Bearing (true) Bearing (mag) Surface Threshold Offset Overrun Length
04 130 ft / 40 m 8,202 ft / 2,500 m 37.49° 35.21° Asphalt 363 ft / 111 m 810 ft / 247 m
22 130 ft / 40 m 8,202 ft / 2,500 m 217.51° 215.23° Asphalt 596 ft / 182 m 747 ft / 228 m

ETSN

Details ICAO ETSN
Name NEUBURG
Region Germany - Military
Timezone Europe/Berlin (UTC+1.0)
Stats Elevation 1,249 ft / 381 m (AMSL)
Location 48.711000° 11.211583°
Runways 1
Magnetic Variation 3.030° E

METAR

ETSN 111920Z 22005KT 9999 FEW025 BKN045 BKN100 04/02 Q0988 BLU BLU

Decode

TAF

Not found

Destination Runways

ID Width Length Bearing (true) Bearing (mag) Surface Threshold Offset Overrun Length
09 98 ft / 30 m 7,987 ft / 2,435 m 90.86° 87.83° Asphalt 0 ft / 0 m 902 ft / 275 m
27 98 ft / 30 m 7,987 ft / 2,435 m 270.89° 267.86° Asphalt 0 ft / 0 m 951 ft / 290 m